Main page
METAR-TAF:

METAR-TAF

Airports :

Clermont-Ferrand, France

Clermont-Ferrand Auvergne Airport

latitude: 45-47N, longitude: 003-10E, elevation: 332 m

Current weather observation

The report was made 20 minutes ago, at 10:30 UTC
Wind 20 kt from the South
Temperature 16°C
Humidity 59%
Pressure 1013 hPa
Visibility 10 km or more
no clouds below 1500 m and no cumulonimbus

METAR: LFLC 231030Z AUTO 17020KT CAVOK 16/08 Q1013 TEMPO 17016G28KT

Time: 11:50 (10:50 UTC)

Forecast

The report was made 2 hours and 50 minutes ago, at 08:00 UTC
Forecast valid from 23 at 09 UTC to 24 at 09 UTC
Wind 16 kt from the South
Visibility 10 km or more
no clouds below 1500 m and no cumulonimbus
Temporary
from 23 at 09 UTC to 23 at 15 UTC
Wind 16 kt from the South with gusts up to 28 kt

TAF: LFLC 230800Z 2309/2409 17016KT CAVOK TEMPO 2309/2315 17016G28KT

Weather observations and forecasts of more than 4000 airports (METAR and TAF reports).

The available stations are represented by yellow and red dots on the map.

Hover mouse over dot to see the name of the station.

Then click to see weather observations and forecasts.

To change the map : click on the green buttons with a black cross to zoom in, on the green button with a dash to zoom out, or on the green arrows for adjacent maps.


METAR-TAF: